LGZA/ZTH METAR and TAF weather

Enter ICAO airport designator
Station Type Date Time Source
LGZA METAR 2019/10/20 17:50 UTC NOAA

LGZA 201750Z 00000KT CAVOK 20/17 Q1020


Station Type Date Time Source
LGZA Decoded METAR 2019/10/20 17:50 UTC NOAA

Zakinthos Airport , Greece (LGZA) 37-45N 020-53E
Oct 20, 2019 - 01:50 PM EDT / 2019.10.20 1750 UTC
Wind: Calm:0
Visibility: greater than 7 mile(s):0
Temperature: 68 F (20 C)
Dew Point: 62 F (17 C)
Relative Humidity: 82%
Pressure (altimeter): 30.12 in. Hg (1020 hPa)
ob: LGZA 201750Z 00000KT CAVOK 20/17 Q1020
cycle: 18

Station Type Date Time Source
LGZA TAF 2011/11/25 15:06 UTC NOAA

TAF TAF LGZA 251400Z 2515/2603 02012KT 9999 FEW025 SCT035 BKN080 PROB30
TEMPO 2518/2603 8000 RA PROB30 2522/2603 5000 BR SCT010

Example: see airport list